Time;durP1;ratioP1;P1;durP2;ratioP2;P2;SDS_P1;SDS_P2;PMS_P1;PMS_P2;Temp;Humidity;BMP_temperature;BMP_pressure;BME280_temperature;BME280_humidity;BME280_pressure;Samples;Min_cycle;Max_cycle;Signal;HPM_P1;HPM_P2
2022/05/30 00:00:50;;;;;;;2.75;1.98;;;;;;;13.15;68.86;99259.94;4363624;32;34953;-67
2022/05/30 00:03:19;;;;;;;3.10;2.25;;;;;;;12.98;69.45;99256.72;4363962;32;34603;-66
2022/05/30 00:05:49;;;;;;;3.08;2.10;;;;;;;13.07;69.23;99265.97;4364065;32;34408;-71
2022/05/30 00:08:18;;;;;;;2.70;1.90;;;;;;;13.31;68.75;99260.75;4364071;32;34352;-67
2022/05/30 00:10:46;;;;;;;2.28;1.75;;;;;;;13.20;68.87;99261.84;4363690;32;33737;-67
2022/05/30 00:13:14;;;;;;;3.25;2.22;;;;;;;13.23;68.88;99266.72;4364292;32;33953;-67
2022/05/30 00:15:41;;;;;;;2.72;2.08;;;;;;;13.23;69.07;99264.00;4363473;32;33607;-67
2022/05/30 00:18:09;;;;;;;3.35;2.25;;;;;;;12.77;70.58;99251.34;4364106;32;34071;-67
2022/05/30 00:20:37;;;;;;;2.40;2.05;;;;;;;13.27;69.38;99252.28;4364162;32;34292;-67
2022/05/30 00:23:04;;;;;;;3.12;2.15;;;;;;;13.19;69.09;99250.12;4363708;32;34732;-67
2022/05/30 00:25:32;;;;;;;2.85;1.90;;;;;;;13.25;69.32;99238.09;4364140;32;34356;-71
2022/05/30 00:28:00;;;;;;;3.08;2.00;;;;;;;13.37;68.80;99243.28;4363970;32;34684;-67
2022/05/30 00:30:27;;;;;;;2.42;2.00;;;;;;;13.07;70.08;99236.81;4363628;32;33913;-70
2022/05/30 00:32:55;;;;;;;2.95;2.20;;;;;;;13.10;70.13;99233.53;4363816;32;34037;-67
2022/05/30 00:35:22;;;;;;;2.00;1.73;;;;;;;13.14;70.29;99233.81;4363477;32;34210;-71
2022/05/30 00:37:50;;;;;;;2.58;1.90;;;;;;;13.20;70.09;99226.44;4363747;32;34159;-68
2022/05/30 00:40:18;;;;;;;2.80;1.80;;;;;;;13.36;69.73;99227.19;4363880;32;35014;-67
2022/05/30 00:42:46;;;;;;;3.55;2.20;;;;;;;13.71;68.41;99221.56;4350517;32;34091;-70
2022/05/30 00:45:14;;;;;;;2.47;2.10;;;;;;;13.95;66.89;99223.56;4363154;32;33460;-67
2022/05/30 00:47:42;;;;;;;2.45;2.00;;;;;;;13.91;66.64;99220.59;4363799;32;34032;-67
2022/05/30 00:50:09;;;;;;;3.92;2.20;;;;;;;13.52;68.21;99212.41;4363610;32;32630;-71
2022/05/30 00:52:42;;;;;;;2.67;2.00;;;;;;;13.72;67.75;99206.00;4350160;32;33822;-68
2022/05/30 00:55:19;;;;;;;2.70;2.00;;;;;;;13.39;69.16;99205.66;4350373;32;33458;-70
2022/05/30 00:57:47;;;;;;;2.20;2.00;;;;;;;13.58;68.89;99211.25;4363637;32;34005;-67
2022/05/30 01:00:21;;;;;;;3.60;2.72;;;;;;;13.46;69.16;99213.53;4350509;32;34276;-68
2022/05/30 01:08:25;;;;;;;5.68;2.30;;;;;;;13.83;67.50;99201.31;4363319;32;34919;-66
2022/05/30 01:10:53;;;;;;;3.53;2.40;;;;;;;13.77;67.60;99203.25;4363184;32;34180;-68
2022/05/30 01:13:23;;;;;;;3.25;2.10;;;;;;;13.75;67.75;99210.88;4363678;32;34205;-71
2022/05/30 01:15:51;;;;;;;3.03;2.22;;;;;;;13.99;66.78;99210.19;4363520;32;33268;-66
2022/05/30 01:18:27;;;;;;;3.28;2.37;;;;;;;13.77;67.64;99203.25;4363583;32;33988;-66
2022/05/30 01:21:32;;;;;;;2.97;2.30;;;;;;;13.75;67.58;99195.34;4350091;32;34245;-67
2022/05/30 01:24:15;;;;;;;2.97;2.25;;;;;;;13.67;68.35;99198.69;4363662;32;33967;-67
2022/05/30 01:27:17;;;;;;;2.62;2.03;;;;;;;13.85;67.42;99193.66;4350700;32;32828;-70
2022/05/30 01:29:49;;;;;;;4.37;2.65;;;;;;;13.59;68.43;99185.66;4350264;32;33864;-70
2022/05/30 01:32:20;;;;;;;3.25;2.30;;;;;;;13.77;67.68;99181.44;4349915;32;34226;-71
2022/05/30 01:34:49;;;;;;;3.53;2.10;;;;;;;13.55;68.03;99187.31;4363574;32;34706;-68
2022/05/30 01:37:17;;;;;;;4.87;2.22;;;;;;;13.61;68.11;99178.00;4350353;32;34198;-67
2022/05/30 01:39:44;;;;;;;3.03;2.12;;;;;;;13.84;67.51;99181.91;4363542;32;33440;-68
2022/05/30 01:42:13;;;;;;;2.72;2.17;;;;;;;13.92;66.87;99180.50;4363235;32;35340;-69
2022/05/30 01:44:42;;;;;;;2.65;2.08;;;;;;;13.85;66.79;99188.22;4363758;32;34577;-68
2022/05/30 01:47:10;;;;;;;2.70;2.08;;;;;;;13.90;66.90;99190.88;4363236;32;33482;-71
2022/05/30 01:49:38;;;;;;;3.47;2.10;;;;;;;13.93;66.45;99184.84;4363500;32;34535;-69
2022/05/30 01:52:06;;;;;;;2.83;1.92;;;;;;;13.68;66.72;99178.50;4363052;32;34202;-70
2022/05/30 01:54:34;;;;;;;2.65;2.20;;;;;;;13.52;67.65;99176.97;4363315;32;34073;-70
2022/05/30 01:57:03;;;;;;;4.22;2.53;;;;;;;13.82;67.09;99180.56;4363468;32;34268;-67
2022/05/30 01:59:30;;;;;;;2.92;2.10;;;;;;;13.80;66.61;99175.44;4363454;32;33702;-70
2022/05/30 02:01:59;;;;;;;2.53;2.10;;;;;;;13.93;65.99;99184.84;4363551;32;32812;-67
2022/05/30 02:04:27;;;;;;;3.45;2.15;;;;;;;13.98;65.91;99184.03;4363352;32;33623;-67
2022/05/30 02:06:55;;;;;;;3.40;2.17;;;;;;;13.75;66.59;99183.63;4357136;32;33571;-67
2022/05/30 02:09:23;;;;;;;3.47;2.30;;;;;;;13.79;66.29;99173.78;4363409;32;33977;-68
2022/05/30 02:11:51;;;;;;;3.08;2.40;;;;;;;13.54;66.78;99183.78;4363197;32;34727;-71
2022/05/30 02:14:19;;;;;;;3.37;2.35;;;;;;;13.77;66.42;99180.63;4363128;32;33994;-67
2022/05/30 02:17:01;;;;;;;4.00;2.15;;;;;;;13.72;65.88;99186.94;4362802;32;33488;-67
2022/05/30 02:19:34;;;;;;;2.75;2.08;;;;;;;13.84;65.27;99192.81;4362681;32;34787;-71
2022/05/30 02:22:03;;;;;;;5.03;2.58;;;;;;;13.88;65.45;99193.06;4363316;32;34229;-71
2022/05/30 02:24:31;;;;;;;2.62;2.00;;;;;;;13.83;65.75;99193.94;4363273;32;34640;-70
2022/05/30 02:26:59;;;;;;;3.28;2.30;;;;;;;13.77;66.09;99200.50;4349902;32;33305;-70
2022/05/30 02:29:26;;;;;;;3.50;2.37;;;;;;;13.82;65.93;99194.22;4363167;32;34611;-66
2022/05/30 02:31:54;;;;;;;3.22;2.60;;;;;;;13.82;65.72;99199.66;4363258;32;34048;-69
2022/05/30 02:37:09;;;;;;;2.62;2.10;;;;;;;13.74;65.60;99204.62;4358657;32;33249;-70
2022/05/30 02:39:37;;;;;;;4.20;2.40;;;;;;;13.54;66.50;99197.41;4363503;32;34844;-71
2022/05/30 02:42:06;;;;;;;3.87;2.40;;;;;;;13.74;65.54;99204.62;4362915;32;35093;-68
2022/05/30 02:44:34;;;;;;;3.25;2.20;;;;;;;13.68;65.91;99202.22;4349517;32;33623;-69
2022/05/30 02:47:02;;;;;;;4.60;2.40;;;;;;;13.54;65.77;99204.75;4362998;32;34267;-67
2022/05/30 02:49:30;;;;;;;3.03;2.20;;;;;;;13.69;65.89;99210.13;4363136;32;33834;-71
2022/05/30 02:51:59;;;;;;;3.65;2.45;;;;;;;12.96;68.81;99215.34;4363150;32;34198;-67
2022/05/30 02:54:27;;;;;;;2.28;1.90;;;;;;;13.53;67.08;99220.28;4363368;32;34046;-68
2022/05/30 02:56:59;;;;;;;3.37;2.28;;;;;;;13.55;66.99;99222.75;4362374;32;33041;-71
2022/05/30 02:59:28;;;;;;;3.55;2.22;;;;;;;13.39;67.57;99224.75;4362969;32;33891;-67
2022/05/30 03:01:57;;;;;;;3.47;2.37;;;;;;;13.32;68.03;99225.03;4357050;32;34239;-67
2022/05/30 03:04:25;;;;;;;4.25;2.25;;;;;;;13.57;66.68;99228.72;4362980;32;33504;-67
2022/05/30 03:06:53;;;;;;;3.70;2.50;;;;;;;13.91;65.16;99230.72;4362966;32;33557;-68
2022/05/30 03:09:20;;;;;;;3.70;2.42;;;;;;;14.04;64.34;99231.94;4362803;32;33850;-67
2022/05/30 03:11:48;;;;;;;3.47;2.40;;;;;;;13.58;65.98;99235.78;4362638;32;34179;-71
2022/05/30 03:14:16;;;;;;;3.55;2.37;;;;;;;13.38;66.50;99227.75;4363104;32;33998;-67
2022/05/30 03:16:43;;;;;;;2.97;2.30;;;;;;;13.50;66.61;99233.69;4362849;32;33524;-69
2022/05/30 03:19:15;;;;;;;4.25;2.97;;;;;;;13.77;65.74;99235.97;4362638;32;33990;-68
2022/05/30 03:21:42;;;;;;;4.82;2.70;;;;;;;13.93;65.55;99236.66;4362677;32;35124;-69
2022/05/30 03:24:10;;;;;;;3.17;2.25;;;;;;;13.92;65.54;99232.31;4362469;32;34201;-69
2022/05/30 03:26:37;;;;;;;3.60;2.62;;;;;;;13.91;65.71;99242.44;4362307;32;33357;-70
2022/05/30 03:29:06;;;;;;;3.20;2.45;;;;;;;13.52;66.71;99242.41;4362707;32;34717;-78
2022/05/30 03:31:33;;;;;;;4.03;2.78;;;;;;;13.81;66.06;99253.37;4362837;32;33973;-80
2022/05/30 03:34:01;;;;;;;4.07;2.45;;;;;;;13.61;67.03;99250.78;4362303;32;34720;-67
2022/05/30 03:36:29;;;;;;;3.78;2.40;;;;;;;13.56;67.35;99248.88;4362468;32;34318;-67
2022/05/30 03:38:57;;;;;;;3.12;2.53;;;;;;;13.96;66.38;99241.56;4349185;32;32217;-68
2022/05/30 03:41:31;;;;;;;3.80;2.75;;;;;;;14.07;65.30;99245.84;4362289;32;32678;-72
2022/05/30 03:44:00;;;;;;;3.15;2.45;;;;;;;13.68;66.34;99241.19;4362732;32;34205;-67
2022/05/30 03:46:30;;;;;;;4.28;2.70;;;;;;;14.19;65.07;99247.37;4362242;32;34039;-67
2022/05/30 03:48:58;;;;;;;3.67;2.75;;;;;;;13.86;65.60;99236.97;4362409;32;33729;-67
2022/05/30 03:51:26;;;;;;;3.37;2.67;;;;;;;13.69;66.40;99237.38;4362126;32;35024;-67
2022/05/30 03:53:54;;;;;;;2.90;2.22;;;;;;;13.81;66.62;99242.47;4362426;32;33903;-69
2022/05/30 03:56:21;;;;;;;3.70;2.47;;;;;;;14.08;65.36;99241.19;4361695;32;33366;-66
2022/05/30 03:58:50;;;;;;;3.83;2.42;;;;;;;13.38;67.40;99249.53;4362283;32;34020;-67
2022/05/30 04:01:17;;;;;;;4.28;2.50;;;;;;;13.52;67.28;99235.03;4362438;32;34222;-68
2022/05/30 04:03:45;;;;;;;3.60;2.67;;;;;;;13.63;67.12;99249.41;4362023;32;34003;-68
2022/05/30 04:06:13;;;;;;;4.03;2.60;;;;;;;13.94;66.38;99250.03;4361611;32;33238;-67
2022/05/30 04:08:41;;;;;;;4.45;2.45;;;;;;;13.93;66.20;99253.03;4362319;32;34760;-67
2022/05/30 04:11:10;;;;;;;3.75;2.37;;;;;;;13.21;67.87;99245.22;4361839;32;34152;-68
2022/05/30 04:13:39;;;;;;;2.62;2.30;;;;;;;13.02;68.72;99241.47;4362009;32;32438;-68
2022/05/30 04:16:09;;;;;;;5.03;2.97;;;;;;;13.68;66.51;99237.66;4362058;32;33244;-68
2022/05/30 04:18:38;;;;;;;3.75;2.53;;;;;;;14.25;65.13;99241.59;4362147;32;33720;-66
2022/05/30 04:21:07;;;;;;;3.47;2.33;;;;;;;13.57;66.69;99247.00;4361940;32;35058;-67
2022/05/30 04:23:35;;;;;;;3.87;2.72;;;;;;;13.79;67.26;99255.59;4362225;32;33769;-67
2022/05/30 04:26:05;;;;;;;4.45;2.60;;;;;;;13.90;67.28;99256.34;4361843;32;34325;-68
2022/05/30 04:28:33;;;;;;;3.30;2.47;;;;;;;13.74;68.92;99256.44;4348499;32;33775;-68
2022/05/30 04:31:10;;;;;;;3.75;2.75;;;;;;;14.06;67.18;99257.03;4362065;32;33680;-71
2022/05/30 04:33:42;;;;;;;4.10;2.75;;;;;;;14.52;65.71;99256.69;4348175;32;33956;-69
2022/05/30 04:36:12;;;;;;;3.05;2.30;;;;;;;14.57;64.50;99265.66;4360591;32;34245;-67
2022/05/30 04:38:41;;;;;;;4.68;2.53;;;;;;;14.76;64.40;99264.94;4360680;32;34106;-68
2022/05/30 04:41:12;;;;;;;4.57;2.60;;;;;;;14.56;63.21;99274.94;4343953;32;32859;-68
2022/05/30 04:43:45;;;;;;;2.78;2.20;;;;;;;14.40;64.43;99267.97;4360592;32;34144;-67
2022/05/30 04:46:22;;;;;;;3.90;2.90;;;;;;;14.19;65.06;99271.94;4362117;32;33547;-70
2022/05/30 04:48:52;;;;;;;4.57;2.33;;;;;;;13.94;66.58;99274.56;4362852;32;34005;-68
2022/05/30 04:51:19;;;;;;;4.12;2.60;;;;;;;14.52;64.82;99278.50;4362245;32;34149;-66
2022/05/30 04:53:47;;;;;;;3.95;2.28;;;;;;;13.98;67.02;99274.81;4362244;32;34773;-66
2022/05/30 04:56:19;;;;;;;3.87;2.70;;;;;;;14.52;65.51;99281.25;4361904;32;33493;-67
2022/05/30 04:58:49;;;;;;;2.85;2.30;;;;;;;14.42;66.01;99289.50;4349640;32;33903;-66
2022/05/30 05:01:17;;;;;;;4.35;2.50;;;;;;;14.54;65.66;99276.31;4362383;32;34296;-66
2022/05/30 05:03:45;;;;;;;3.20;2.47;;;;;;;14.35;65.06;99276.19;4362371;32;34110;-66
2022/05/30 05:06:15;;;;;;;3.87;2.35;;;;;;;14.51;65.50;99282.34;4362084;32;33486;-66
2022/05/30 05:08:55;;;;;;;3.30;2.10;;;;;;;13.64;66.70;99299.28;4362725;32;33709;-66
2022/05/30 05:11:29;;;;;;;2.78;2.15;;;;;;;14.29;65.17;99299.97;4361581;32;33657;-65
2022/05/30 05:13:59;;;;;;;2.17;1.83;;;;;;;14.33;65.16;99292.03;4362709;32;32238;-65
2022/05/30 05:16:31;;;;;;;3.40;2.47;;;;;;;14.73;63.72;99295.56;4349364;32;31896;-71
2022/05/30 05:18:59;;;;;;;4.05;2.20;;;;;;;14.61;64.44;99298.66;4349078;32;34743;-67
2022/05/30 05:21:31;;;;;;;3.42;2.40;;;;;;;14.69;64.04;99298.03;4361957;32;34320;-67
2022/05/30 05:24:01;;;;;;;2.95;2.10;;;;;;;14.78;63.36;99303.69;4348321;32;34048;-69
2022/05/30 05:26:31;;;;;;;4.25;2.28;;;;;;;14.59;64.68;99310.97;4354867;32;31824;-71
2022/05/30 05:28:59;;;;;;;3.70;2.37;;;;;;;14.65;65.00;99313.38;4352887;32;34187;-71
2022/05/30 05:31:31;;;;;;;3.00;2.30;;;;;;;14.56;64.54;99317.81;4340267;32;33802;-67
2022/05/30 05:34:00;;;;;;;5.68;2.65;;;;;;;14.64;63.47;99319.91;4354580;32;33932;-67
2022/05/30 05:36:30;;;;;;;3.20;2.30;;;;;;;15.10;63.05;99307.78;4339863;32;33111;-67
2022/05/30 05:38:58;;;;;;;3.12;2.17;;;;;;;15.31;63.47;99320.09;4354766;32;33604;-68
2022/05/30 05:41:27;;;;;;;4.75;2.08;;;;;;;15.34;60.89;99327.72;4352375;32;32789;-67
2022/05/30 05:43:56;;;;;;;3.30;2.30;;;;;;;15.50;60.87;99327.53;4342478;32;34521;-69
2022/05/30 05:46:26;;;;;;;2.78;2.00;;;;;;;15.49;61.85;99329.47;4362243;32;33702;-69
2022/05/30 05:48:55;;;;;;;4.35;2.35;;;;;;;15.87;59.85;99334.22;4361715;32;34053;-69
2022/05/30 05:51:23;;;;;;;3.78;1.90;;;;;;;14.72;63.34;99323.97;4361314;32;35122;-66
2022/05/30 05:53:53;;;;;;;2.70;2.10;;;;;;;15.23;62.57;99337.13;4361062;32;34413;-69
2022/05/30 05:56:26;;;;;;;3.28;2.10;;;;;;;15.78;61.46;99332.13;4361505;32;33964;-70
2022/05/30 05:58:54;;;;;;;3.30;2.05;;;;;;;15.91;61.40;99341.53;4361841;32;33687;-68
2022/05/30 06:01:24;;;;;;;3.08;2.28;;;;;;;16.21;62.39;99336.75;4369071;32;34246;-68
2022/05/30 06:03:58;;;;;;;2.35;1.85;;;;;;;15.91;61.25;99340.72;4363463;32;34562;-67
2022/05/30 06:06:27;;;;;;;3.37;2.08;;;;;;;15.70;60.78;99342.88;4359187;32;32971;-66
2022/05/30 06:09:06;;;;;;;2.78;2.00;;;;;;;15.63;60.14;99351.44;4361968;32;34668;-67
2022/05/30 06:11:35;;;;;;;2.75;2.15;;;;;;;16.12;61.43;99344.81;4361564;32;34378;-67
2022/05/30 06:14:04;;;;;;;3.12;1.87;;;;;;;15.99;59.02;99342.81;4348714;32;34611;-68
2022/05/30 06:16:37;;;;;;;3.35;2.00;;;;;;;16.63;57.73;99343.22;4362272;32;33544;-70
2022/05/30 06:19:05;;;;;;;4.15;2.35;;;;;;;17.46;54.12;99343.41;4363145;32;33632;-69
2022/05/30 06:21:34;;;;;;;3.17;1.85;;;;;;;17.87;55.55;99352.78;4362738;32;34237;-71
2022/05/30 06:24:02;;;;;;;2.45;1.90;;;;;;;18.17;52.71;99351.28;4363120;32;34729;-70
2022/05/30 06:26:37;;;;;;;3.03;1.90;;;;;;;17.73;54.32;99355.47;4363249;32;34118;-71
2022/05/30 06:29:05;;;;;;;4.43;2.20;;;;;;;18.04;54.41;99364.72;4363132;32;34645;-70
2022/05/30 06:31:33;;;;;;;3.20;2.20;;;;;;;18.26;56.88;99356.84;4362837;32;34979;-71
2022/05/30 06:34:02;;;;;;;3.15;2.10;;;;;;;19.27;50.09;99355.47;4349615;32;33840;-72
2022/05/30 06:36:31;;;;;;;3.37;1.83;;;;;;;18.80;52.20;99358.59;4362578;32;33222;-70
2022/05/30 06:38:59;;;;;;;2.65;1.70;;;;;;;19.24;50.41;99365.19;4362878;32;34553;-70
2022/05/30 06:41:30;;;;;;;2.67;1.87;;;;;;;19.20;49.48;99357.84;4362555;32;34145;-70
2022/05/30 06:44:05;;;;;;;2.78;1.70;;;;;;;19.33;50.22;99372.66;4349938;32;34056;-70
2022/05/30 06:46:44;;;;;;;;;;;;;;;18.85;50.46;99372.25;4363272;32;32934;-69
2022/05/30 06:49:20;;;;;;;4.78;2.00;;;;;;;18.98;49.67;99375.19;4363011;32;32378;-70
2022/05/30 06:51:48;;;;;;;15.18;3.60;;;;;;;18.44;53.39;99375.09;4362861;32;34360;-70
2022/05/30 06:54:15;;;;;;;6.57;2.92;;;;;;;19.58;48.20;99382.16;4361124;32;33815;-71
2022/05/30 06:58:12;;;;;;;3.87;2.12;;;;;;;19.36;49.45;99377.53;4362053;32;33667;-71
2022/05/30 06:59:32;;;;;;;2.35;1.80;;;;;;;20.48;46.07;99387.25;4351785;32;34001;-76
2022/05/30 07:02:02;;;;;;;5.10;2.15;;;;;;;21.02;44.76;99378.63;4362821;32;33913;-70
2022/05/30 07:04:34;;;;;;;3.20;2.12;;;;;;;20.90;45.72;99376.53;4358688;32;32472;-69
2022/05/30 07:07:10;;;;;;;5.65;2.45;;;;;;;20.71;44.55;99368.59;4355959;32;33531;-69
2022/05/30 07:09:38;;;;;;;3.70;2.03;;;;;;;21.41;42.18;99365.72;4352922;32;33574;-69
2022/05/30 07:12:09;;;;;;;2.22;1.65;;;;;;;21.72;42.67;99368.19;4352431;32;34104;-70
2022/05/30 07:14:38;;;;;;;3.05;1.90;;;;;;;22.41;41.67;99366.94;4356079;32;33827;-70
2022/05/30 07:17:10;;;;;;;3.55;1.52;;;;;;;21.57;42.65;99374.25;4358327;32;33567;-72
2022/05/30 07:19:37;;;;;;;3.33;1.60;;;;;;;21.59;43.43;99371.97;4351609;32;34187;-70
2022/05/30 07:22:06;;;;;;;2.75;1.55;;;;;;;21.94;40.11;99372.59;4340583;32;34174;-70
2022/05/30 07:24:37;;;;;;;4.25;1.62;;;;;;;20.83;40.81;99366.00;4353928;32;33535;-70
2022/05/30 07:27:16;;;;;;;2.20;1.40;;;;;;;20.41;44.44;99373.12;4354355;32;31859;-70
2022/05/30 07:29:54;;;;;;;2.87;1.40;;;;;;;20.60;41.98;99361.81;4352029;32;32401;-70
2022/05/30 07:32:32;;;;;;;2.53;1.48;;;;;;;20.47;44.10;99364.41;4355467;32;32537;-70
2022/05/30 07:35:15;;;;;;;2.12;1.37;;;;;;;20.77;40.78;99370.06;4356564;32;33944;-71
2022/05/30 07:37:50;;;;;;;2.33;1.47;;;;;;;20.60;42.76;99370.88;4352617;32;33182;-71
2022/05/30 07:40:18;;;;;;;1.33;1.17;;;;;;;20.46;41.86;99370.22;4360960;32;32876;-72
2022/05/30 07:42:48;;;;;;;1.90;1.40;;;;;;;20.27;40.91;99376.84;4359142;32;34106;-72
2022/05/30 07:45:16;;;;;;;2.10;1.60;;;;;;;20.09;40.22;99366.94;4360978;32;33913;-73
2022/05/30 07:47:44;;;;;;;1.98;1.23;;;;;;;19.60;44.60;99371.62;4361155;32;33029;-71
2022/05/30 07:50:13;;;;;;;1.75;1.40;;;;;;;20.00;41.78;99369.69;4360818;32;33972;-72
2022/05/30 07:52:41;;;;;;;1.62;1.35;;;;;;;19.69;42.29;99369.72;4371038;32;34286;-70
2022/05/30 07:55:09;;;;;;;3.05;1.50;;;;;;;19.98;40.98;99374.69;4377170;32;33719;-70
2022/05/30 07:57:53;;;;;;;1.60;1.27;;;;;;;19.32;44.12;99365.53;4377382;32;33860;-71
2022/05/30 08:00:23;;;;;;;1.67;1.40;;;;;;;19.20;44.20;99372.44;4377413;32;34628;-71
2022/05/30 08:02:52;;;;;;;4.18;1.40;;;;;;;19.56;43.85;99368.69;4374059;32;34336;-70
2022/05/30 08:05:21;;;;;;;2.58;1.55;;;;;;;19.59;42.23;99372.75;4348964;32;33844;-71
2022/05/30 08:07:57;;;;;;;3.00;1.70;;;;;;;19.82;42.28;99374.31;4362156;32;31735;-71
2022/05/30 08:10:26;;;;;;;4.25;1.58;;;;;;;19.09;46.91;99379.31;4361969;32;34760;-72
2022/05/30 08:12:54;;;;;;;2.30;1.70;;;;;;;19.42;46.30;99390.84;4361801;32;33971;-72
2022/05/30 08:15:22;;;;;;;2.85;1.67;;;;;;;19.50;45.38;99380.16;4361905;32;33990;-71
2022/05/30 08:17:55;;;;;;;1.83;1.50;;;;;;;19.51;45.15;99379.84;4362718;32;33442;-72
2022/05/30 08:20:26;;;;;;;2.60;1.52;;;;;;;20.16;42.18;99381.03;4350627;32;34709;-72
2022/05/30 08:22:54;;;;;;;2.08;1.30;;;;;;;20.17;42.83;99390.13;4350863;32;34163;-71
2022/05/30 08:25:22;;;;;;;2.67;1.50;;;;;;;20.46;40.38;99389.50;4363554;32;34922;-70
2022/05/30 08:27:50;;;;;;;9.57;3.55;;;;;;;19.37;44.52;99388.22;4363511;32;34251;-71
2022/05/30 08:30:19;;;;;;;2.60;1.45;;;;;;;20.39;41.65;99395.50;4350420;32;34039;-73
2022/05/30 08:32:48;;;;;;;1.75;1.55;;;;;;;21.03;39.97;99400.34;4364057;32;33777;-70
2022/05/30 08:35:24;;;;;;;1.67;1.17;;;;;;;20.80;40.59;99410.78;4363705;32;33339;-70
2022/05/30 08:37:57;;;;;;;3.20;1.55;;;;;;;20.21;38.88;99391.09;4363724;32;33318;-71
2022/05/30 08:43:26;;;;;;;1.70;1.40;;;;;;;21.27;38.07;99374.19;4352536;32;35097;-69
2022/05/30 08:46:11;;;;;;;1.55;1.20;;;;;;;19.93;39.98;99363.03;4348720;32;33128;-68
2022/05/30 08:48:45;;;;;;;2.75;1.58;;;;;;;19.53;41.86;99368.53;4363484;32;34226;-69
2022/05/30 08:51:42;;;;;;;5.55;1.55;;;;;;;18.99;43.35;99376.84;4363185;32;34157;-68
2022/05/30 08:54:31;;;;;;;4.85;1.70;;;;;;;20.36;40.08;99385.13;4348793;32;34059;-71
2022/05/30 08:57:04;;;;;;;2.20;1.50;;;;;;;20.69;40.37;99390.16;4350711;32;34512;-69
2022/05/30 08:59:47;;;;;;;1.92;1.40;;;;;;;20.93;37.81;99380.56;4350534;32;34378;-69
2022/05/30 09:02:45;;;;;;;1.33;1.23;;;;;;;20.23;41.58;99400.66;4350353;32;33677;-71
2022/05/30 09:05:30;;;;;;;1.60;1.23;;;;;;;19.43;41.27;99399.87;4350360;32;34086;-69
2022/05/30 09:08:23;;;;;;;1.70;1.40;;;;;;;20.90;42.62;99407.66;4352387;32;33694;-69
2022/05/30 09:10:57;;;;;;;2.45;1.40;;;;;;;20.16;38.90;99400.31;4363304;32;31815;-71
2022/05/30 09:13:35;;;;;;;2.00;1.30;;;;;;;20.94;40.46;99402.31;4350573;32;34708;-70
2022/05/30 09:16:22;;;;;;;2.25;1.40;;;;;;;21.07;42.41;99409.59;4350204;32;34147;-70
2022/05/30 09:18:53;;;;;;;1.12;1.05;;;;;;;21.76;36.92;99404.22;4363604;32;33663;-71
2022/05/30 09:21:30;;;;;;;2.50;1.37;;;;;;;21.15;40.48;99404.41;4351022;32;33484;-72
2022/05/30 09:23:59;;;;;;;1.85;1.40;;;;;;;21.14;40.46;99411.84;4337936;32;33866;-68
2022/05/30 09:26:32;;;;;;;2.28;1.40;;;;;;;20.89;38.69;99410.78;4358466;32;35010;-71
2022/05/30 09:29:10;;;;;;;2.15;1.23;;;;;;;20.72;41.31;99419.06;4355649;32;33985;-71
2022/05/30 09:31:54;;;;;;;1.60;1.30;;;;;;;20.36;40.36;99418.19;4340610;32;33359;-70
2022/05/30 09:34:47;;;;;;;2.00;1.17;;;;;;;21.13;37.92;99415.75;4340837;32;34697;-71
2022/05/30 09:37:31;;;;;;;3.37;1.40;;;;;;;20.99;40.22;99412.38;4346789;32;32580;-69
2022/05/30 09:39:59;;;;;;;8.05;2.50;;;;;;;19.22;40.88;99397.69;4355145;32;33817;-70
2022/05/30 09:42:33;;;;;;;1.62;1.23;;;;;;;20.21;41.73;99408.44;4353272;32;33490;-71
2022/05/30 09:45:14;;;;;;;1.73;1.17;;;;;;;21.01;39.61;99418.38;4355243;32;34725;-67
2022/05/30 09:48:01;;;;;;;4.22;1.85;;;;;;;20.85;38.48;99416.13;4352291;32;32780;-64
2022/05/30 09:50:29;;;;;;;2.42;1.40;;;;;;;20.54;42.01;99427.28;4356637;32;33707;-66
2022/05/30 09:52:58;;;;;;;2.53;1.30;;;;;;;20.77;38.84;99427.97;4343906;32;33472;-64
2022/05/30 09:55:47;;;;;;;4.20;1.48;;;;;;;21.21;37.08;99434.25;4352783;32;33951;-64
2022/05/30 09:58:17;;;;;;;2.00;1.30;;;;;;;20.77;38.31;99433.47;4340658;32;35058;-66
2022/05/30 10:00:58;;;;;;;2.33;1.23;;;;;;;20.94;36.98;99431.84;4353260;32;34583;-66
2022/05/30 10:03:40;;;;;;;1.77;1.30;;;;;;;20.38;40.85;99432.44;4345788;32;34160;-66
2022/05/30 10:06:13;;;;;;;2.50;1.27;;;;;;;20.65;39.81;99431.38;4355133;32;32250;-66
2022/05/30 10:08:42;;;;;;;1.87;1.27;;;;;;;20.94;37.51;99427.16;4355609;32;34316;-65
2022/05/30 10:11:09;;;;;;;4.50;1.30;;;;;;;21.01;37.94;99434.91;4341496;32;34554;-66
2022/05/30 10:13:41;;;;;;;2.90;1.20;;;;;;;20.60;39.00;99433.47;4341938;32;33112;-65
2022/05/30 10:16:14;;;;;;;2.80;1.45;;;;;;;20.47;37.77;99432.44;4355140;32;33190;-65
2022/05/30 10:18:52;;;;;;;1.77;1.27;;;;;;;19.61;39.05;99425.53;4343243;32;33812;-66
2022/05/30 10:21:23;;;;;;;2.70;1.20;;;;;;;19.11;40.66;99426.56;4356302;32;33849;-68
2022/05/30 10:30:33;;;;;;;1.60;1.15;;;;;;;20.05;40.76;99438.38;4345230;32;33975;-69
2022/05/30 10:33:11;;;;;;;1.80;1.10;;;;;;;20.35;39.49;99437.81;4354998;32;32171;-67
2022/05/30 10:35:44;;;;;;;1.98;1.35;;;;;;;21.01;38.83;99443.19;4354429;32;33411;-70
2022/05/30 10:38:48;;;;;;;2.30;1.37;;;;;;;20.91;38.97;99447.09;4354523;32;33557;-67
2022/05/30 10:41:19;;;;;;;1.35;1.00;;;;;;;20.75;39.47;99449.53;4341679;32;33941;-66
2022/05/30 10:44:15;;;;;;;1.75;1.23;;;;;;;21.20;36.93;99446.41;4354642;32;33919;-66
2022/05/30 10:47:10;;;;;;;1.70;1.30;;;;;;;20.73;39.75;99445.47;4356223;32;33188;-67
2022/05/30 10:49:49;;;;;;;1.90;1.00;;;;;;;20.78;37.03;99450.84;4348119;32;33837;-67
2022/05/30 10:52:36;;;;;;;1.25;1.00;;;;;;;20.82;39.29;99447.13;4362949;32;34273;-66
2022/05/30 10:55:14;;;;;;;3.03;1.30;;;;;;;20.93;38.66;99444.84;4360308;32;84230;-67
2022/05/30 10:57:49;;;;;;;2.00;1.40;;;;;;;20.04;40.38;99441.44;4349272;32;33083;-66
2022/05/30 11:00:20;;;;;;;2.15;1.33;;;;;;;18.99;41.30;99449.12;4343433;32;33480;-66
2022/05/30 11:03:16;;;;;;;1.75;1.20;;;;;;;19.79;40.56;99446.53;4341666;32;33968;-67
2022/05/30 11:05:44;;;;;;;1.87;1.15;;;;;;;20.78;39.29;99459.13;4356559;32;34771;-67
2022/05/30 11:08:51;;;;;;;1.25;1.15;;;;;;;20.76;38.12;99462.19;4354575;32;33100;-69
2022/05/30 11:11:24;;;;;;;2.00;1.40;;;;;;;21.25;36.95;99470.25;4355129;32;34060;-68
2022/05/30 11:13:59;;;;;;;2.03;1.53;;;;;;;20.63;39.16;99471.44;4355036;32;35113;-67
2022/05/30 11:16:38;;;;;;;1.75;1.20;;;;;;;20.90;38.81;99478.56;4341843;32;34028;-68
2022/05/30 11:19:18;;;;;;;1.40;1.02;;;;;;;21.19;37.25;99479.88;4355001;32;32684;-68
2022/05/30 11:22:05;;;;;;;3.80;1.10;;;;;;;21.29;36.74;99485.03;4341933;32;34744;-67
2022/05/30 11:24:33;;;;;;;1.87;1.10;;;;;;;21.17;36.46;99479.38;4354824;32;34030;-67
2022/05/30 11:27:11;;;;;;;1.87;1.08;;;;;;;20.91;38.40;99488.47;4354357;32;34677;-68
2022/05/30 11:29:44;;;;;;;1.85;1.42;;;;;;;20.89;38.98;99488.00;4354864;32;33595;-71
2022/05/30 11:32:30;;;;;;;1.80;1.12;;;;;;;20.61;38.54;99480.00;4354568;32;33752;-69
2022/05/30 11:35:13;;;;;;;1.60;1.30;;;;;;;20.63;37.99;99477.75;4357069;32;34344;-67
2022/05/30 11:37:52;;;;;;;2.42;1.33;;;;;;;20.00;40.26;99474.34;4342093;32;33339;-68
2022/05/30 11:40:32;;;;;;;2.20;1.45;;;;;;;20.81;38.80;99475.81;4354624;32;34141;-70
2022/05/30 11:43:20;;;;;;;2.58;1.30;;;;;;;20.82;37.28;99471.09;4354683;32;34043;-68
2022/05/30 11:45:51;;;;;;;2.22;1.30;;;;;;;18.87;39.45;99470.06;4339490;32;34663;-68
2022/05/30 11:48:39;;;;;;;1.73;1.30;;;;;;;19.64;40.60;99466.19;4339220;32;33885;-67
2022/05/30 11:51:28;;;;;;;5.03;1.35;;;;;;;20.07;39.58;99473.88;4354989;32;33145;-68
2022/05/30 11:54:07;;;;;;;2.20;1.30;;;;;;;19.66;39.75;99461.19;4355993;32;34666;-66
2022/05/30 11:57:05;;;;;;;1.45;1.20;;;;;;;20.08;39.43;99470.78;4355103;32;34289;-67
2022/05/30 11:59:57;;;;;;;1.33;1.08;;;;;;;20.28;37.76;99474.09;4354683;32;34159;-67
2022/05/30 12:02:34;;;;;;;1.87;1.30;;;;;;;20.67;36.60;99483.44;4354998;32;34145;-68
2022/05/30 12:05:29;;;;;;;3.25;1.27;;;;;;;20.78;37.56;99475.66;4342113;32;34059;-67
2022/05/30 12:08:07;;;;;;;1.65;1.20;;;;;;;20.63;37.33;99471.44;4357684;32;33900;-67
2022/05/30 12:10:52;;;;;;;1.62;1.20;;;;;;;20.84;36.99;99466.91;4355328;32;34513;-66
2022/05/30 12:13:48;;;;;;;2.47;1.40;;;;;;;20.65;37.84;99469.16;4354716;32;34361;-67
2022/05/30 12:16:53;;;;;;;1.77;1.12;;;;;;;20.81;37.77;99469.50;4341589;32;33793;-66
2022/05/30 12:25:44;;;;;;;2.30;1.20;;;;;;;19.91;40.41;99478.16;4344054;32;34104;-67